createdAt,value
2019-01-05T00:00:01.525Z,1028.99
2019-01-05T00:01:01.523Z,1028.98
2019-01-05T00:02:01.403Z,1028.92
2019-01-05T00:03:01.406Z,1028.97
2019-01-05T00:04:01.283Z,1028.95
2019-01-05T00:05:01.287Z,1029.02
2019-01-05T00:06:01.284Z,1029.02
2019-01-05T00:07:01.164Z,1028.92
2019-01-05T00:08:01.160Z,1028.99
2019-01-05T00:09:01.039Z,1028.93
2019-01-05T00:10:01.043Z,1028.92
2019-01-05T00:11:01.002Z,1028.93
2019-01-05T00:12:00.927Z,1028.93
2019-01-05T00:13:00.919Z,1028.93
2019-01-05T00:14:00.801Z,1028.94
2019-01-05T00:15:00.800Z,1028.95
2019-01-05T00:16:00.681Z,1028.96
2019-01-05T00:17:00.678Z,1028.94
2019-01-05T00:18:00.678Z,1028.90
2019-01-05T00:19:00.556Z,1028.91
2019-01-05T00:20:00.641Z,1028.89
2019-01-05T00:21:00.445Z,1028.91
2019-01-05T00:22:00.438Z,1028.85
2019-01-05T00:23:00.436Z,1028.84
2019-01-05T00:24:00.315Z,1028.86
2019-01-05T00:25:00.318Z,1028.84
2019-01-05T00:26:00.196Z,1028.83
2019-01-05T00:27:00.280Z,1028.85
2019-01-05T00:28:00.196Z,1028.90
2019-01-05T00:29:00.077Z,1028.88
2019-01-05T00:30:00.078Z,1028.87
2019-01-05T00:30:59.955Z,1028.79
2019-01-05T00:31:59.955Z,1028.74
2019-01-05T00:32:59.955Z,1028.63
2019-01-05T00:33:59.833Z,1028.61
2019-01-05T00:34:59.835Z,1028.70
2019-01-05T00:35:59.715Z,1028.73
2019-01-05T00:36:59.715Z,1028.71
2019-01-05T00:37:59.684Z,1028.69
2019-01-05T00:38:59.597Z,1028.69
2019-01-05T00:39:59.593Z,1028.71
2019-01-05T00:40:59.472Z,1028.71
2019-01-05T00:41:59.473Z,1028.73
2019-01-05T00:42:59.353Z,1028.70
2019-01-05T00:43:59.354Z,1028.72
2019-01-05T00:44:59.390Z,1028.71
2019-01-05T00:45:59.239Z,1028.66
2019-01-05T00:46:59.230Z,1028.67
2019-01-05T00:47:59.111Z,1028.68
2019-01-05T00:48:59.112Z,1028.66
2019-01-05T00:49:59.115Z,1028.71
2019-01-05T00:50:58.999Z,1028.71
2019-01-05T00:51:59.001Z,1028.72
2019-01-05T00:52:58.873Z,1028.71
2019-01-05T00:53:58.888Z,1028.70
2019-01-05T00:54:58.870Z,1028.70
2019-01-05T00:55:58.749Z,1028.74
2019-01-05T00:56:58.762Z,1028.73
2019-01-05T00:57:58.628Z,1028.70
2019-01-05T00:58:58.632Z,1028.67
2019-01-05T00:59:58.629Z,1028.62
2019-01-05T01:00:58.509Z,1028.63
2019-01-05T01:01:59.013Z,1028.65
2019-01-05T01:02:58.388Z,1028.64
2019-01-05T01:03:58.390Z,1028.65
2019-01-05T01:04:58.388Z,1028.64
2019-01-05T01:05:58.268Z,1028.64
2019-01-05T01:06:58.267Z,1028.64
2019-01-05T01:07:58.147Z,1028.64
2019-01-05T01:08:58.146Z,1028.72
2019-01-05T01:09:58.113Z,1028.64
2019-01-05T01:10:58.027Z,1028.65
2019-01-05T01:11:58.026Z,1028.61
2019-01-05T01:12:57.904Z,1028.65
2019-01-05T01:13:57.912Z,1028.60
2019-01-05T01:14:57.785Z,1028.64
2019-01-05T01:15:57.788Z,1028.65
2019-01-05T01:16:57.785Z,1028.63
2019-01-05T01:17:57.665Z,1028.64
2019-01-05T01:18:57.667Z,1028.64
2019-01-05T01:19:57.544Z,1028.62
2019-01-05T01:20:57.551Z,1028.66
2019-01-05T01:21:57.545Z,1028.61
2019-01-05T01:22:57.426Z,1028.61
2019-01-05T01:23:57.425Z,1028.62
2019-01-05T01:24:57.306Z,1028.60
2019-01-05T01:25:57.305Z,1028.60
2019-01-05T01:26:57.305Z,1028.54
2019-01-05T01:27:57.185Z,1028.50
2019-01-05T01:28:57.186Z,1028.56
2019-01-05T01:29:57.064Z,1028.53
2019-01-05T01:30:57.062Z,1028.53
2019-01-05T01:31:57.061Z,1028.55
2019-01-05T01:32:56.943Z,1028.48
2019-01-05T01:33:56.942Z,1028.51
2019-01-05T01:34:56.821Z,1028.51
2019-01-05T01:35:56.821Z,1028.52
2019-01-05T01:36:56.825Z,1028.55
2019-01-05T01:37:56.707Z,1028.52
2019-01-05T01:38:56.701Z,1028.50
2019-01-05T01:39:56.580Z,1028.50
2019-01-05T01:40:56.578Z,1028.52
2019-01-05T01:41:56.543Z,1028.47
2019-01-05T01:42:56.466Z,1028.48
2019-01-05T01:43:56.459Z,1028.43
2019-01-05T01:44:56.340Z,1028.40
2019-01-05T01:45:56.353Z,1028.40
2019-01-05T01:46:56.218Z,1028.38
2019-01-05T01:47:56.219Z,1028.39
2019-01-05T01:48:56.219Z,1028.35
2019-01-05T01:49:56.100Z,1028.32
2019-01-05T01:50:56.134Z,1028.28
2019-01-05T01:51:56.073Z,1028.27
2019-01-05T01:52:55.986Z,1028.27
2019-01-05T01:53:55.976Z,1028.24
2019-01-05T01:54:55.857Z,1028.23
2019-01-05T01:55:55.860Z,1028.20
2019-01-05T01:56:55.739Z,1028.24
2019-01-05T01:57:55.735Z,1028.24
2019-01-05T01:58:55.738Z,1028.23
2019-01-05T01:59:55.615Z,1028.20
2019-01-05T02:00:55.617Z,1028.18
2019-01-05T02:01:55.495Z,1028.15
2019-01-05T02:02:55.494Z,1028.13
2019-01-05T02:03:55.523Z,1028.14
2019-01-05T02:04:55.381Z,1028.14
2019-01-05T02:05:55.377Z,1028.15
2019-01-05T02:06:55.258Z,1028.13
2019-01-05T02:07:55.254Z,1028.07
2019-01-05T02:08:55.254Z,1028.04
2019-01-05T02:09:55.134Z,1028.09
2019-01-05T02:10:55.134Z,1027.99
2019-01-05T02:11:55.013Z,1028.01
2019-01-05T02:12:55.013Z,1028.00
2019-01-05T02:13:54.898Z,1028.10
2019-01-05T02:14:54.893Z,1028.04
2019-01-05T02:15:54.893Z,1028.05
2019-01-05T02:16:54.776Z,1028.04
2019-01-05T02:17:54.771Z,1028.04
2019-01-05T02:18:54.652Z,1028.05
2019-01-05T02:19:54.653Z,1028.02
2019-01-05T02:20:54.650Z,1028.03
2019-01-05T02:21:54.530Z,1028.06
2019-01-05T02:22:54.531Z,1027.98
2019-01-05T02:23:54.410Z,1028.02
2019-01-05T02:24:54.410Z,1027.99
2019-01-05T02:25:54.411Z,1027.95
2019-01-05T02:26:54.289Z,1027.97
2019-01-05T02:27:54.289Z,1027.93
2019-01-05T02:28:54.170Z,1027.91
2019-01-05T02:29:54.170Z,1027.92
2019-01-05T02:30:54.174Z,1027.82
2019-01-05T02:31:54.054Z,1027.80
2019-01-05T02:32:54.051Z,1027.70
2019-01-05T02:33:53.945Z,1027.71
2019-01-05T02:34:53.933Z,1027.72
2019-01-05T02:35:53.927Z,1027.67
2019-01-05T02:36:53.808Z,1027.70
2019-01-05T02:37:53.807Z,1027.68
2019-01-05T02:38:53.689Z,1027.67
2019-01-05T02:39:53.688Z,1027.73
2019-01-05T02:40:53.689Z,1027.77
2019-01-05T02:41:53.577Z,1027.75
2019-01-05T02:42:53.567Z,1027.69
2019-01-05T02:43:53.448Z,1027.70
2019-01-05T02:44:53.445Z,1027.69
2019-01-05T02:45:53.327Z,1027.67
2019-01-05T02:46:53.326Z,1027.65
2019-01-05T02:47:53.331Z,1027.59
2019-01-05T02:48:53.206Z,1027.63
2019-01-05T02:49:53.205Z,1027.56
2019-01-05T02:50:53.089Z,1027.61
2019-01-05T02:51:53.084Z,1027.57
2019-01-05T02:52:53.083Z,1027.59
2019-01-05T02:53:52.964Z,1027.57
2019-01-05T02:54:52.966Z,1027.59
2019-01-05T02:55:52.845Z,1027.53
2019-01-05T02:56:52.848Z,1027.56
2019-01-05T02:57:52.846Z,1027.56
2019-01-05T02:58:52.726Z,1027.57
2019-01-05T02:59:52.723Z,1027.56
2019-01-05T03:00:52.602Z,1027.58
2019-01-05T03:01:52.602Z,1027.58
2019-01-05T03:02:52.612Z,1027.56
2019-01-05T03:03:52.486Z,1027.55
2019-01-05T03:04:52.482Z,1027.57
2019-01-05T03:05:52.362Z,1027.56
2019-01-05T03:06:52.366Z,1027.48
2019-01-05T03:07:52.364Z,1027.49
2019-01-05T03:08:52.242Z,1027.53
2019-01-05T03:09:52.243Z,1027.52
2019-01-05T03:10:52.120Z,1027.51
2019-01-05T03:11:52.121Z,1027.53
2019-01-05T03:12:52.121Z,1027.50
2019-01-05T03:13:52.001Z,1027.45
2019-01-05T03:14:52.001Z,1027.46
2019-01-05T03:15:51.884Z,1027.37
2019-01-05T03:16:51.882Z,1027.32
2019-01-05T03:17:51.842Z,1027.32
2019-01-05T03:18:51.758Z,1027.28
2019-01-05T03:19:51.760Z,1027.34
2019-01-05T03:20:51.639Z,1027.29
2019-01-05T03:21:51.643Z,1027.31
2019-01-05T03:22:51.518Z,1027.31
2019-01-05T03:23:51.519Z,1027.27
2019-01-05T03:24:51.520Z,1027.31
2019-01-05T03:25:51.401Z,1027.28
2019-01-05T03:26:51.398Z,1027.26
2019-01-05T03:27:51.277Z,1027.20
2019-01-05T03:28:51.279Z,1027.18
2019-01-05T03:29:51.319Z,1027.11
2019-01-05T03:30:51.160Z,1027.13
2019-01-05T03:31:51.178Z,1027.17
2019-01-05T03:32:51.040Z,1027.10
2019-01-05T03:33:51.037Z,1027.10
2019-01-05T03:34:51.036Z,1027.09
2019-01-05T03:35:50.916Z,1027.05
2019-01-05T03:36:50.915Z,1027.04
2019-01-05T03:37:50.794Z,1027.08
2019-01-05T03:38:50.796Z,1027.13
2019-01-05T03:39:50.797Z,1027.13
2019-01-05T03:40:50.675Z,1027.16
2019-01-05T03:41:50.675Z,1027.13
2019-01-05T03:42:50.563Z,1027.12
2019-01-05T03:43:50.553Z,1027.18
2019-01-05T03:44:50.555Z,1027.12
2019-01-05T03:45:50.434Z,1027.18
2019-01-05T03:46:50.433Z,1027.21
2019-01-05T03:47:50.313Z,1027.13
2019-01-05T03:48:50.311Z,1027.13
2019-01-05T03:49:50.279Z,1027.13
2019-01-05T03:50:50.194Z,1027.09
2019-01-05T03:51:50.194Z,1027.07
2019-01-05T03:52:50.072Z,1027.06
2019-01-05T03:53:50.072Z,1027.06
2019-01-05T03:54:49.950Z,1027.07
2019-01-05T03:55:49.953Z,1027.09
2019-01-05T03:56:49.955Z,1027.05
2019-01-05T03:57:49.829Z,1027.00
2019-01-05T03:58:49.830Z,1026.96
2019-01-05T03:59:49.711Z,1026.94
2019-01-05T04:00:49.715Z,1026.90
2019-01-05T04:01:49.711Z,1026.87
2019-01-05T04:02:49.592Z,1026.87
2019-01-05T04:03:49.592Z,1026.85
2019-01-05T04:04:49.469Z,1026.83
2019-01-05T04:05:49.474Z,1026.81
2019-01-05T04:06:49.470Z,1026.80
2019-01-05T04:07:49.353Z,1026.71
2019-01-05T04:08:49.350Z,1026.69
2019-01-05T04:09:49.231Z,1026.68
2019-01-05T04:10:49.237Z,1026.61
2019-01-05T04:11:49.228Z,1026.61
2019-01-05T04:12:49.110Z,1026.65
2019-01-05T04:13:49.106Z,1026.64
2019-01-05T04:14:48.988Z,1026.60
2019-01-05T04:15:48.992Z,1026.60
2019-01-05T04:16:48.986Z,1026.60
2019-01-05T04:17:48.867Z,1026.56
2019-01-05T04:18:48.867Z,1026.61
2019-01-05T04:19:48.751Z,1026.59
2019-01-05T04:20:48.746Z,1026.60
2019-01-05T04:21:48.745Z,1026.60
2019-01-05T04:22:48.641Z,1026.61
2019-01-05T04:23:48.625Z,1026.58
2019-01-05T04:24:48.506Z,1026.60
2019-01-05T04:25:48.504Z,1026.59
2019-01-05T04:26:48.507Z,1026.60
2019-01-05T04:27:48.384Z,1026.62
2019-01-05T04:28:48.385Z,1026.55
2019-01-05T04:29:48.271Z,1026.55
2019-01-05T04:30:48.266Z,1026.53
2019-01-05T04:31:48.229Z,1026.52
2019-01-05T04:32:48.142Z,1026.51
2019-01-05T04:33:48.143Z,1026.50
2019-01-05T04:34:48.024Z,1026.48
2019-01-05T04:35:48.026Z,1026.50
2019-01-05T04:36:47.985Z,1026.46
2019-01-05T04:37:47.903Z,1026.45
2019-01-05T04:38:47.903Z,1026.46
2019-01-05T04:39:47.783Z,1026.42
2019-01-05T04:40:47.782Z,1026.40
2019-01-05T04:41:47.747Z,1026.40
2019-01-05T04:42:47.662Z,1026.41
2019-01-05T04:43:47.666Z,1026.36
2019-01-05T04:44:47.545Z,1026.38
2019-01-05T04:45:47.544Z,1026.36
2019-01-05T04:46:47.426Z,1026.35
2019-01-05T04:47:47.420Z,1026.29
2019-01-05T04:48:47.424Z,1026.35
2019-01-05T04:49:47.300Z,1026.32
2019-01-05T04:50:47.301Z,1026.27
2019-01-05T04:51:47.180Z,1026.30
2019-01-05T04:52:47.181Z,1026.29
2019-01-05T04:53:47.182Z,1026.23
2019-01-05T04:54:47.060Z,1026.26
2019-01-05T04:55:47.060Z,1026.25
2019-01-05T04:56:46.939Z,1026.17
2019-01-05T04:57:46.938Z,1026.20
2019-01-05T04:58:46.938Z,1026.21
2019-01-05T04:59:46.823Z,1026.17
2019-01-05T05:00:46.819Z,1026.23
2019-01-05T05:01:46.700Z,1026.24
2019-01-05T05:02:46.697Z,1026.21
2019-01-05T05:03:46.825Z,1026.28
2019-01-05T05:04:46.701Z,1026.29
2019-01-05T05:05:46.704Z,1026.27
2019-01-05T05:06:46.461Z,1026.26
2019-01-05T05:07:46.458Z,1026.19
2019-01-05T05:08:46.458Z,1026.22
2019-01-05T05:09:46.338Z,1026.18
2019-01-05T05:10:46.338Z,1026.22
2019-01-05T05:11:46.214Z,1026.18
2019-01-05T05:12:46.215Z,1026.20
2019-01-05T05:13:46.220Z,1026.14
2019-01-05T05:14:46.095Z,1026.15
2019-01-05T05:15:46.101Z,1026.15
2019-01-05T05:16:45.977Z,1026.13
2019-01-05T05:17:45.976Z,1026.15
2019-01-05T05:18:45.975Z,1026.07
2019-01-05T05:19:45.859Z,1026.05
2019-01-05T05:20:45.853Z,1026.05
2019-01-05T05:21:45.732Z,1026.11
2019-01-05T05:22:45.738Z,1026.01
2019-01-05T05:23:45.733Z,1026.02
2019-01-05T05:24:45.612Z,1026.02
2019-01-05T05:25:45.611Z,1026.05
2019-01-05T05:26:45.492Z,1026.06
2019-01-05T05:27:45.497Z,1026.10
2019-01-05T05:28:45.455Z,1026.03
2019-01-05T05:29:45.370Z,1026.06
2019-01-05T05:30:45.375Z,1026.10
2019-01-05T05:31:45.252Z,1026.09
2019-01-05T05:32:45.252Z,1026.06
2019-01-05T05:33:45.214Z,1026.06
2019-01-05T05:34:45.130Z,1026.04
2019-01-05T05:35:45.131Z,1026.04
2019-01-05T05:36:45.013Z,1026.04
2019-01-05T05:37:45.018Z,1026.06
2019-01-05T05:38:44.893Z,1026.05
2019-01-05T05:39:44.923Z,1026.04
2019-01-05T05:40:44.888Z,1026.06
2019-01-05T05:41:44.770Z,1026.05
2019-01-05T05:42:44.777Z,1026.08
2019-01-05T05:43:44.651Z,1026.07
2019-01-05T05:44:44.662Z,1026.04
2019-01-05T05:45:44.649Z,1026.04
2019-01-05T05:46:44.528Z,1026.06
2019-01-05T05:47:44.531Z,1025.99
2019-01-05T05:48:44.406Z,1025.99
2019-01-05T05:49:44.407Z,1026.04
2019-01-05T05:50:44.406Z,1025.97
2019-01-05T05:51:44.288Z,1025.98
2019-01-05T05:52:44.292Z,1025.97
2019-01-05T05:53:44.169Z,1025.97
2019-01-05T05:54:44.166Z,1026.06
2019-01-05T05:55:44.168Z,1025.99
2019-01-05T05:56:44.048Z,1025.92
2019-01-05T05:57:44.046Z,1026.02
2019-01-05T05:58:43.926Z,1025.96
2019-01-05T05:59:43.926Z,1026.05
2019-01-05T06:00:43.925Z,1026.07
2019-01-05T06:01:43.807Z,1026.01
2019-01-05T06:02:43.808Z,1026.01
2019-01-05T06:03:43.688Z,1026.02
2019-01-05T06:04:43.687Z,1026.07
2019-01-05T06:05:43.687Z,1026.05
2019-01-05T06:06:43.565Z,1026.11
2019-01-05T06:07:43.566Z,1026.11
2019-01-05T06:08:43.447Z,1026.06
2019-01-05T06:09:43.445Z,1026.03
2019-01-05T06:10:43.449Z,1025.95
2019-01-05T06:11:43.321Z,1026.00
2019-01-05T06:12:43.325Z,1025.97
2019-01-05T06:13:43.204Z,1025.99
2019-01-05T06:14:43.203Z,1025.88
2019-01-05T06:15:43.203Z,1025.90
2019-01-05T06:16:43.081Z,1025.93
2019-01-05T06:17:43.082Z,1025.95
2019-01-05T06:18:42.974Z,1025.91
2019-01-05T06:19:42.960Z,1025.99
2019-01-05T06:20:42.966Z,1025.97
2019-01-05T06:21:42.843Z,1025.94
2019-01-05T06:22:42.839Z,1025.97
2019-01-05T06:23:42.722Z,1026.00
2019-01-05T06:24:42.723Z,1025.94
2019-01-05T06:25:42.719Z,1025.99
2019-01-05T06:26:42.599Z,1025.92
2019-01-05T06:27:42.601Z,1025.89
2019-01-05T06:28:42.479Z,1025.87
2019-01-05T06:29:42.483Z,1025.90
2019-01-05T06:30:42.478Z,1025.90
2019-01-05T06:31:42.358Z,1025.99
2019-01-05T06:32:42.362Z,1025.95
2019-01-05T06:33:42.245Z,1025.91
2019-01-05T06:34:42.237Z,1025.95
2019-01-05T06:35:42.240Z,1025.94
2019-01-05T06:36:42.122Z,1025.98
2019-01-05T06:37:42.117Z,1026.03
2019-01-05T06:38:42.000Z,1026.00
2019-01-05T06:39:41.996Z,1025.94
2019-01-05T06:40:41.995Z,1025.95
2019-01-05T06:41:41.876Z,1026.03
2019-01-05T06:42:41.880Z,1025.95
2019-01-05T06:43:41.756Z,1025.97
2019-01-05T06:44:41.756Z,1026.05
2019-01-05T06:45:41.761Z,1026.08
2019-01-05T06:46:41.635Z,1026.03
2019-01-05T06:47:41.635Z,1026.07
2019-01-05T06:48:41.514Z,1026.13
2019-01-05T06:49:41.514Z,1026.09
2019-01-05T06:50:41.515Z,1026.05
2019-01-05T06:51:41.393Z,1026.13
2019-01-05T06:52:41.395Z,1026.13
2019-01-05T06:53:41.273Z,1026.17
2019-01-05T06:54:41.277Z,1026.15
2019-01-05T06:55:41.274Z,1026.21
2019-01-05T06:56:41.153Z,1026.21
2019-01-05T06:57:41.152Z,1026.29
2019-01-05T06:58:41.034Z,1026.23
2019-01-05T06:59:41.034Z,1026.26
2019-01-05T07:00:41.037Z,1026.28
2019-01-05T07:01:40.913Z,1026.24
2019-01-05T07:02:40.915Z,1026.31
2019-01-05T07:03:40.793Z,1026.31
2019-01-05T07:04:40.792Z,1026.29
2019-01-05T07:05:40.793Z,1026.32
2019-01-05T07:06:40.670Z,1026.29
2019-01-05T07:07:40.670Z,1026.35
2019-01-05T07:08:40.551Z,1026.30
2019-01-05T07:09:40.551Z,1026.32
2019-01-05T07:10:40.552Z,1026.34
2019-01-05T07:11:40.433Z,1026.32
2019-01-05T07:12:40.429Z,1026.32
2019-01-05T07:13:40.310Z,1026.27
2019-01-05T07:14:40.309Z,1026.34
2019-01-05T07:15:40.308Z,1026.45
2019-01-05T07:16:40.188Z,1026.38
2019-01-05T07:17:40.190Z,1026.41
2019-01-05T07:18:40.068Z,1026.41
2019-01-05T07:19:40.068Z,1026.44
2019-01-05T07:20:40.067Z,1026.45
2019-01-05T07:21:39.948Z,1026.43
2019-01-05T07:22:39.947Z,1026.48
2019-01-05T07:23:39.827Z,1026.44
2019-01-05T07:24:39.831Z,1026.45
2019-01-05T07:25:39.827Z,1026.39
2019-01-05T07:26:39.712Z,1026.50
2019-01-05T07:27:39.708Z,1026.47
2019-01-05T07:28:39.585Z,1026.46
2019-01-05T07:29:39.589Z,1026.36
2019-01-05T07:30:39.587Z,1026.43
2019-01-05T07:31:39.466Z,1026.48
2019-01-05T07:32:39.467Z,1026.49
2019-01-05T07:33:39.344Z,1026.47
2019-01-05T07:34:39.343Z,1026.53
2019-01-05T07:35:39.346Z,1026.52
2019-01-05T07:36:39.224Z,1026.51
2019-01-05T07:37:39.225Z,1026.54
2019-01-05T07:38:39.104Z,1026.50
2019-01-05T07:39:39.109Z,1026.55
2019-01-05T07:40:39.104Z,1026.62
2019-01-05T07:41:38.984Z,1026.55
2019-01-05T07:42:38.984Z,1026.60
2019-01-05T07:43:38.864Z,1026.55
2019-01-05T07:44:38.867Z,1026.59
2019-01-05T07:45:38.828Z,1026.58
2019-01-05T07:46:38.743Z,1026.64
2019-01-05T07:47:38.742Z,1026.56
2019-01-05T07:48:38.621Z,1026.65
2019-01-05T07:49:38.623Z,1026.65
2019-01-05T07:50:38.588Z,1026.64
2019-01-05T07:51:38.500Z,1026.60
2019-01-05T07:52:38.505Z,1026.65
2019-01-05T07:53:38.383Z,1026.62
2019-01-05T07:54:38.381Z,1026.64
2019-01-05T07:55:40.504Z,1026.65
2019-01-05T07:56:38.269Z,1026.64
2019-01-05T07:57:38.259Z,1026.69
2019-01-05T07:58:38.140Z,1026.66
2019-01-05T07:59:38.148Z,1026.62
2019-01-05T08:00:38.147Z,1026.67
2019-01-05T08:01:38.020Z,1026.71
2019-01-05T08:02:38.018Z,1026.73
2019-01-05T08:03:37.898Z,1026.66
2019-01-05T08:04:37.901Z,1026.68
2019-01-05T08:05:37.861Z,1026.70
2019-01-05T08:06:37.778Z,1026.71
2019-01-05T08:07:37.780Z,1026.71
2019-01-05T08:08:37.658Z,1026.77
2019-01-05T08:09:37.658Z,1026.74
2019-01-05T08:10:37.620Z,1026.72
2019-01-05T08:11:37.537Z,1026.72
2019-01-05T08:12:37.537Z,1026.78
2019-01-05T08:13:37.417Z,1026.81
2019-01-05T08:14:37.415Z,1026.78
2019-01-05T08:15:37.380Z,1026.77
2019-01-05T08:16:37.299Z,1026.78
2019-01-05T08:17:37.301Z,1026.75
2019-01-05T08:18:37.175Z,1026.73
2019-01-05T08:19:37.177Z,1026.66
2019-01-05T08:20:37.175Z,1026.70
2019-01-05T08:21:37.055Z,1026.73
2019-01-05T08:22:37.054Z,1026.69
2019-01-05T08:23:36.938Z,1026.74
2019-01-05T08:24:36.933Z,1026.74
2019-01-05T08:25:36.815Z,1026.74
2019-01-05T08:26:36.815Z,1026.76
2019-01-05T08:27:36.814Z,1026.75
2019-01-05T08:28:36.694Z,1026.75
2019-01-05T08:29:36.694Z,1026.76
2019-01-05T08:30:36.575Z,1026.78
2019-01-05T08:31:36.574Z,1026.76
2019-01-05T08:32:36.573Z,1026.77
2019-01-05T08:33:36.453Z,1026.72
2019-01-05T08:34:36.455Z,1026.79
2019-01-05T08:35:36.335Z,1026.77
2019-01-05T08:36:36.331Z,1026.74
2019-01-05T08:37:36.332Z,1026.76
2019-01-05T08:38:36.214Z,1026.77
2019-01-05T08:39:36.214Z,1026.75
2019-01-05T08:40:36.092Z,1026.77
2019-01-05T08:41:36.094Z,1026.78
2019-01-05T08:42:36.089Z,1026.78
2019-01-05T08:43:35.970Z,1026.77
2019-01-05T08:44:35.977Z,1026.82
2019-01-05T08:45:35.936Z,1026.80
2019-01-05T08:46:35.849Z,1026.82
2019-01-05T08:47:35.850Z,1026.85
2019-01-05T08:48:35.729Z,1026.90
2019-01-05T08:49:35.730Z,1026.83
2019-01-05T08:50:35.725Z,1026.89
2019-01-05T08:51:35.614Z,1026.93
2019-01-05T08:52:35.607Z,1026.90
2019-01-05T08:53:35.487Z,1026.86
2019-01-05T08:54:35.490Z,1026.85
2019-01-05T08:55:35.366Z,1026.91
2019-01-05T08:56:35.369Z,1026.88
2019-01-05T08:57:35.369Z,1026.91
2019-01-05T08:58:35.247Z,1026.85
2019-01-05T08:59:35.247Z,1026.87
2019-01-05T09:00:35.132Z,1026.87
2019-01-05T09:01:35.126Z,1026.89
2019-01-05T09:02:35.165Z,1026.84
2019-01-05T09:03:35.008Z,1026.85
2019-01-05T09:04:35.006Z,1026.81
2019-01-05T09:05:34.885Z,1026.84
2019-01-05T09:06:34.884Z,1026.89
2019-01-05T09:07:34.884Z,1026.86
2019-01-05T09:08:34.766Z,1026.81
2019-01-05T09:09:34.764Z,1026.86
2019-01-05T09:10:34.646Z,1026.81
2019-01-05T09:11:34.665Z,1026.81
2019-01-05T09:12:34.643Z,1026.81
2019-01-05T09:13:34.522Z,1026.80
2019-01-05T09:14:34.524Z,1026.79
2019-01-05T09:15:34.405Z,1026.82
2019-01-05T09:16:34.404Z,1026.81
2019-01-05T09:17:34.405Z,1026.80
2019-01-05T09:18:34.283Z,1026.83
2019-01-05T09:19:34.284Z,1026.83
2019-01-05T09:20:34.165Z,1026.82
2019-01-05T09:21:34.163Z,1026.85
2019-01-05T09:22:34.166Z,1026.83
2019-01-05T09:23:34.041Z,1026.84
2019-01-05T09:24:34.040Z,1026.82
2019-01-05T09:25:33.926Z,1026.88
2019-01-05T09:26:33.921Z,1026.85
2019-01-05T09:27:33.922Z,1026.90
2019-01-05T09:28:33.801Z,1026.87
2019-01-05T09:29:33.801Z,1026.84
2019-01-05T09:30:33.680Z,1026.89
2019-01-05T09:31:33.680Z,1026.88
2019-01-05T09:32:33.678Z,1026.86
2019-01-05T09:33:33.560Z,1026.89
2019-01-05T09:34:33.559Z,1026.88
2019-01-05T09:35:33.439Z,1026.90
2019-01-05T09:36:33.437Z,1026.86
2019-01-05T09:37:33.455Z,1026.88
2019-01-05T09:38:33.317Z,1026.87
2019-01-05T09:39:33.316Z,1026.94
2019-01-05T09:40:33.280Z,1026.88
2019-01-05T09:41:33.196Z,1026.86
2019-01-05T09:42:33.197Z,1026.87
2019-01-05T09:43:33.079Z,1026.91
2019-01-05T09:44:33.076Z,1026.88
2019-01-05T09:45:33.039Z,1026.88
2019-01-05T09:46:32.956Z,1026.89
2019-01-05T09:47:33.036Z,1026.88
2019-01-05T09:48:32.844Z,1026.79
2019-01-05T09:49:32.844Z,1026.88
2019-01-05T09:50:32.837Z,1026.84
2019-01-05T09:51:32.717Z,1026.87
2019-01-05T09:52:32.716Z,1026.78
2019-01-05T09:53:32.593Z,1026.80
2019-01-05T09:54:32.597Z,1026.82
2019-01-05T09:55:32.561Z,1026.75
2019-01-05T09:56:32.476Z,1026.76
2019-01-05T09:57:32.473Z,1026.81
2019-01-05T09:58:32.351Z,1026.84
2019-01-05T09:59:32.353Z,1026.79
2019-01-05T10:00:32.315Z,1026.78
2019-01-05T10:01:32.232Z,1026.82
2019-01-05T10:02:32.231Z,1026.78
2019-01-05T10:03:32.110Z,1026.79
2019-01-05T10:04:32.113Z,1026.81
2019-01-05T10:05:32.074Z,1026.87
2019-01-05T10:06:31.996Z,1026.81
2019-01-05T10:07:31.991Z,1026.81
2019-01-05T10:08:31.875Z,1026.82
2019-01-05T10:09:31.871Z,1026.74
2019-01-05T10:10:31.871Z,1026.82
2019-01-05T10:11:31.872Z,1026.82
2019-01-05T10:12:31.771Z,1026.71
2019-01-05T10:13:31.713Z,1026.85
2019-01-05T10:14:31.746Z,1026.77
2019-01-05T10:15:31.746Z,1026.81
2019-01-05T10:16:31.509Z,1026.74
2019-01-05T10:17:31.508Z,1026.81
2019-01-05T10:18:31.387Z,1026.71
2019-01-05T10:19:31.387Z,1026.78
2019-01-05T10:20:31.389Z,1026.79
2019-01-05T10:21:31.270Z,1026.77
2019-01-05T10:22:31.269Z,1026.75
2019-01-05T10:23:31.146Z,1026.74
2019-01-05T10:24:31.146Z,1026.72
2019-01-05T10:25:31.149Z,1026.69
2019-01-05T10:26:31.026Z,1026.73
2019-01-05T10:27:31.028Z,1026.70
2019-01-05T10:28:31.394Z,1026.69
2019-01-05T10:29:30.905Z,1026.74
2019-01-05T10:30:30.907Z,1026.71
2019-01-05T10:31:30.787Z,1026.72
2019-01-05T10:32:30.785Z,1026.65
2019-01-05T10:33:30.664Z,1026.68
2019-01-05T10:34:30.665Z,1026.68
2019-01-05T10:35:30.664Z,1026.69
2019-01-05T10:36:30.546Z,1026.61
2019-01-05T10:37:30.547Z,1026.64
2019-01-05T10:38:30.425Z,1026.69
2019-01-05T10:39:30.428Z,1026.59
2019-01-05T10:40:30.424Z,1026.67
2019-01-05T10:41:30.306Z,1026.68
2019-01-05T10:42:30.303Z,1026.63
2019-01-05T10:43:30.183Z,1026.57
2019-01-05T10:44:30.184Z,1026.56
2019-01-05T10:45:30.183Z,1026.54
2019-01-05T10:46:30.063Z,1026.58
2019-01-05T10:47:30.061Z,1026.62
2019-01-05T10:48:29.942Z,1026.59
2019-01-05T10:49:29.942Z,1026.61
2019-01-05T10:50:29.942Z,1026.53
2019-01-05T10:51:29.824Z,1026.66
2019-01-05T10:53:29.710Z,1026.58
2019-01-05T10:54:29.700Z,1026.55
2019-01-05T10:55:29.706Z,1026.58
2019-01-05T10:56:29.584Z,1026.55
2019-01-05T10:57:29.579Z,1026.54
2019-01-05T10:58:29.461Z,1026.54
2019-01-05T10:59:29.458Z,1026.59
2019-01-05T11:00:29.460Z,1026.54
2019-01-05T11:01:29.339Z,1026.51
2019-01-05T11:02:29.340Z,1026.53
2019-01-05T11:03:29.218Z,1026.54
2019-01-05T11:04:29.219Z,1026.47
2019-01-05T11:05:29.223Z,1026.53
2019-01-05T11:06:29.099Z,1026.46
2019-01-05T11:07:29.098Z,1026.52
2019-01-05T11:08:28.981Z,1026.45
2019-01-05T11:09:28.977Z,1026.48
2019-01-05T11:10:28.986Z,1026.51
2019-01-05T11:11:28.857Z,1026.45
2019-01-05T11:12:28.855Z,1026.42
2019-01-05T11:13:28.737Z,1026.41
2019-01-05T11:14:28.737Z,1026.44
2019-01-05T11:15:28.739Z,1026.39
2019-01-05T11:16:28.616Z,1026.44
2019-01-05T11:17:28.615Z,1026.36
2019-01-05T11:18:28.496Z,1026.40
2019-01-05T11:19:28.495Z,1026.38
2019-01-05T11:20:28.500Z,1026.33
2019-01-05T11:21:28.374Z,1026.35
2019-01-05T11:22:28.374Z,1026.34
2019-01-05T11:23:28.254Z,1026.33
2019-01-05T11:24:28.273Z,1026.33
2019-01-05T11:25:28.257Z,1026.31
2019-01-05T11:26:28.142Z,1026.28
2019-01-05T11:27:28.134Z,1026.29
2019-01-05T11:28:28.013Z,1026.34
2019-01-05T11:29:28.017Z,1026.33
2019-01-05T11:30:28.015Z,1026.27
2019-01-05T11:31:27.892Z,1026.21
2019-01-05T11:32:27.902Z,1026.23
2019-01-05T11:33:27.780Z,1026.17
2019-01-05T11:34:27.778Z,1026.21
2019-01-05T11:35:27.776Z,1026.22
2019-01-05T11:36:27.655Z,1026.29
2019-01-05T11:37:27.653Z,1026.18
2019-01-05T11:38:27.541Z,1026.25
2019-01-05T11:39:27.541Z,1026.28
2019-01-05T11:40:27.530Z,1026.25
2019-01-05T11:41:27.412Z,1026.27
2019-01-05T11:42:27.414Z,1026.28
2019-01-05T11:43:27.390Z,1026.18
2019-01-05T11:44:27.296Z,1026.22
2019-01-05T11:45:27.303Z,1026.20
2019-01-05T11:46:27.175Z,1026.20
2019-01-05T11:47:27.176Z,1026.21
2019-01-05T11:48:27.053Z,1026.18
2019-01-05T11:49:27.053Z,1026.21
2019-01-05T11:50:27.049Z,1026.23
2019-01-05T11:51:26.929Z,1026.23
2019-01-05T11:52:26.927Z,1026.24
2019-01-05T11:53:26.809Z,1026.17
2019-01-05T11:54:26.814Z,1026.20
2019-01-05T11:55:26.808Z,1026.15
2019-01-05T11:56:26.687Z,1026.17
2019-01-05T11:57:26.689Z,1026.15
2019-01-05T11:58:26.580Z,1026.17
2019-01-05T11:59:26.569Z,1026.13
2019-01-05T12:00:26.566Z,1026.24
2019-01-05T12:01:26.470Z,1026.15
2019-01-05T12:02:26.446Z,1026.09
2019-01-05T12:03:26.334Z,1026.08
2019-01-05T12:04:26.338Z,1026.09
2019-01-05T12:05:26.329Z,1026.07